Time;durP1;ratioP1;P1;durP2;ratioP2;P2;SDS_P1;SDS_P2;PMS_P1;PMS_P2;Temp;Humidity;BMP_temperature;BMP_pressure;BME280_temperature;BME280_humidity;BME280_pressure;Samples;Min_cycle;Max_cycle;Signal;HPM_P1;HPM_P2
2021/09/02 00:01:28;;;;;;;0.40;0.40;;;12.10;99.90;;;;;;5105294;28;20226;-72
2021/09/02 00:03:54;;;;;;;1.65;1.42;;;11.90;99.90;;;;;;5088533;28;20188;-72
2021/09/02 00:06:20;;;;;;;0.85;0.85;;;11.80;99.90;;;;;;5070632;28;20168;-72
2021/09/02 00:08:46;;;;;;;0.68;0.68;;;11.80;99.90;;;;;;5070535;28;20256;-72
2021/09/02 00:11:12;;;;;;;0.77;0.77;;;11.80;99.90;;;;;;5088451;28;20191;-72
2021/09/02 00:13:38;;;;;;;0.93;0.90;;;11.80;99.90;;;;;;5088715;28;20243;-72
2021/09/02 00:16:04;;;;;;;0.40;0.40;;;11.90;99.90;;;;;;5088555;28;20160;-72
2021/09/02 00:18:31;;;;;;;0.08;0.08;;;11.90;99.90;;;;;;5070207;28;20168;-72
2021/09/02 00:20:56;;;;;;;0.10;0.10;;;11.60;99.90;;;;;;5088158;28;20199;-72
2021/09/02 00:23:22;;;;;;;0.10;0.10;;;11.70;99.90;;;;;;5087949;28;20187;-72
2021/09/02 00:25:48;;;;;;;0.38;0.38;;;11.70;99.90;;;;;;5069617;28;20175;-72
2021/09/02 00:28:14;;;;;;;0.65;0.65;;;11.70;99.90;;;;;;5070552;28;20534;-72
2021/09/02 00:30:43;;;;;;;0.90;0.80;;;11.50;99.90;;;;;;5088227;28;20191;-72
2021/09/02 00:33:19;;;;;;;0.30;0.30;;;11.50;99.90;;;;;;5088309;28;20156;-72
2021/09/02 00:35:46;;;;;;;0.70;0.70;;;11.70;99.90;;;;;;5088203;28;20187;-72
2021/09/02 00:38:11;;;;;;;0.08;0.08;;;11.70;99.90;;;;;;5069988;28;20191;-72
2021/09/02 00:40:38;;;;;;;1.00;0.82;;;11.70;99.90;;;;;;5069846;28;20686;-72
2021/09/02 00:43:05;;;;;;;0.77;0.77;;;11.80;99.90;;;;;;5069918;28;20230;-72
2021/09/02 00:45:32;;;;;;;0.17;0.17;;;11.70;99.90;;;;;;5087984;28;20156;-72
2021/09/02 00:47:58;;;;;;;2.45;0.35;;;11.60;99.90;;;;;;5097531;28;20178;-72
2021/09/02 00:50:24;;;;;;;4.28;0.80;;;11.60;99.90;;;;;;5108174;28;20209;-72
2021/09/02 00:52:51;;;;;;;0.15;0.15;;;11.50;99.90;;;;;;5089859;28;20313;-73
2021/09/02 00:55:17;;;;;;;0.88;0.85;;;11.50;99.90;;;;;;5089946;28;20167;-72
2021/09/02 00:57:43;;;;;;;0.80;0.80;;;11.70;99.90;;;;;;5089838;28;20195;-73
2021/09/02 01:00:15;;;;;;;1.40;0.82;;;11.70;99.90;;;;;;5107996;28;20189;-72
2021/09/02 01:02:44;;;;;;;0.63;0.63;;;11.50;99.90;;;;;;5108018;28;20156;-72
2021/09/02 01:05:13;;;;;;;0.57;0.57;;;11.50;99.90;;;;;;5107974;28;20510;-72
2021/09/02 01:07:40;;;;;;;0.08;0.08;;;11.50;99.90;;;;;;5107891;28;20202;-72
2021/09/02 01:10:07;;;;;;;0.10;0.10;;;11.70;99.90;;;;;;5107782;28;20183;-72
2021/09/02 01:12:37;;;;;;;0.30;0.30;;;11.90;99.90;;;;;;5089742;28;20185;-73
2021/09/02 01:15:15;;;;;;;0.45;0.45;;;11.70;99.90;;;;;;5089631;28;20183;-73
2021/09/02 01:17:46;;;;;;;1.55;0.65;;;11.80;99.90;;;;;;5107901;28;20174;-73
2021/09/02 01:20:14;;;;;;;0.20;0.20;;;11.90;99.90;;;;;;5107791;28;20218;-73
2021/09/02 01:22:42;;;;;;;0.15;0.15;;;11.80;99.90;;;;;;5107857;28;20160;-73
2021/09/02 01:25:11;;;;;;;0.08;0.08;;;11.90;99.90;;;;;;5107828;28;20154;-73
2021/09/02 01:27:38;;;;;;;0.30;0.30;;;11.70;99.90;;;;;;5107809;28;20238;-72
2021/09/02 01:30:09;;;;;;;2.30;0.38;;;11.50;99.90;;;;;;5089420;28;20214;-73
2021/09/02 01:32:38;;;;;;;0.55;0.52;;;11.60;99.90;;;;;;5107761;28;20178;-73
2021/09/02 01:35:08;;;;;;;1.13;0.17;;;11.40;99.90;;;;;;5089613;28;20179;-73
2021/09/02 01:37:41;;;;;;;0.10;0.10;;;11.30;99.90;;;;;;5111222;28;20182;-73
2021/09/02 01:40:12;;;;;;;0.10;0.10;;;11.10;99.90;;;;;;5092735;28;20567;-72
2021/09/02 01:42:38;;;;;;;0.10;0.10;;;10.90;99.90;;;;;;5092839;28;20181;-73
2021/09/02 01:45:05;;;;;;;1.38;0.88;;;11.00;99.90;;;;;;5111096;28;20164;-73
2021/09/02 01:47:31;;;;;;;0.75;0.75;;;11.00;99.90;;;;;;5111112;28;20230;-73
2021/09/02 01:50:07;;;;;;;0.30;0.30;;;11.20;99.90;;;;;;5115171;28;20194;-73
2021/09/02 01:52:33;;;;;;;0.43;0.43;;;11.50;99.90;;;;;;5131330;28;20221;-73
2021/09/02 01:54:59;;;;;;;0.20;0.20;;;11.60;99.90;;;;;;5131533;28;20163;-73
2021/09/02 01:57:25;;;;;;;0.38;0.28;;;11.60;99.90;;;;;;5131471;28;20155;-73
2021/09/02 01:59:51;;;;;;;1.60;1.50;;;11.40;99.90;;;;;;5131023;28;20200;-73
2021/09/02 02:02:17;;;;;;;0.88;0.88;;;11.10;99.90;;;;;;5113072;28;20300;-73
2021/09/02 02:04:43;;;;;;;0.55;0.55;;;11.40;99.90;;;;;;5112845;28;20198;-73
2021/09/02 02:07:08;;;;;;;0.20;0.20;;;11.60;99.90;;;;;;5131350;28;20166;-73
2021/09/02 02:09:34;;;;;;;0.10;0.10;;;11.70;99.90;;;;;;5131165;28;20197;-72
2021/09/02 02:12:00;;;;;;;0.38;0.38;;;11.80;99.90;;;;;;5112945;28;20535;-73
2021/09/02 02:14:26;;;;;;;3.05;0.95;;;11.80;99.90;;;;;;5112745;28;20171;-73
2021/09/02 02:16:53;;;;;;;0.50;0.35;;;11.70;99.90;;;;;;5131250;28;20151;-73
2021/09/02 02:19:19;;;;;;;0.30;0.30;;;11.60;99.90;;;;;;5131075;28;20222;-73
2021/09/02 02:21:45;;;;;;;0.32;0.32;;;11.50;99.90;;;;;;5131179;28;20166;-73
2021/09/02 02:24:11;;;;;;;0.22;0.22;;;11.60;99.90;;;;;;5131067;28;20190;-73
2021/09/02 02:26:37;;;;;;;1.85;1.27;;;11.60;99.90;;;;;;5131182;28;20159;-73
2021/09/02 02:29:03;;;;;;;0.00;0.00;;;11.50;99.90;;;;;;5131184;28;20276;-73
2021/09/02 02:31:29;;;;;;;0.38;0.38;;;11.60;99.90;;;;;;5131057;28;20182;-75
2021/09/02 02:33:55;;;;;;;0.10;0.10;;;11.40;99.90;;;;;;5112545;28;20253;-72
2021/09/02 02:36:21;;;;;;;0.20;0.20;;;11.60;99.90;;;;;;5112629;28;20170;-74
2021/09/02 02:38:47;;;;;;;1.17;0.65;;;11.40;99.90;;;;;;5130853;28;20166;-72
2021/09/02 02:41:13;;;;;;;0.40;0.40;;;11.50;99.90;;;;;;5131020;28;20190;-74
2021/09/02 02:43:39;;;;;;;0.32;0.32;;;11.40;99.90;;;;;;5130859;28;20528;-74
2021/09/02 02:46:05;;;;;;;0.17;0.17;;;11.20;99.90;;;;;;5130799;28;20167;-73
2021/09/02 02:48:31;;;;;;;0.10;0.10;;;10.80;99.90;;;;;;5130052;28;20204;-74
2021/09/02 02:50:57;;;;;;;0.90;0.90;;;10.50;99.90;;;;;;5130662;28;20191;-73
2021/09/02 02:53:23;;;;;;;0.50;0.50;;;10.50;99.90;;;;;;5130484;28;20236;-76
2021/09/02 02:55:49;;;;;;;0.40;0.40;;;10.50;99.90;;;;;;5112051;28;20664;-74
2021/09/02 02:58:14;;;;;;;0.57;0.57;;;10.60;99.90;;;;;;5130336;28;20171;-73
2021/09/02 03:00:40;;;;;;;0.45;0.38;;;10.70;99.90;;;;;;5130338;28;20505;-73
2021/09/02 03:03:06;;;;;;;0.90;0.90;;;10.70;99.90;;;;;;5130332;28;20193;-73
2021/09/02 03:05:32;;;;;;;0.57;0.57;;;10.50;99.90;;;;;;5112186;28;20206;-73
2021/09/02 03:07:58;;;;;;;0.20;0.20;;;10.60;99.90;;;;;;5130270;28;20155;-74
2021/09/02 03:10:24;;;;;;;0.10;0.10;;;10.80;99.90;;;;;;5130139;28;20220;-74
2021/09/02 03:12:50;;;;;;;0.30;0.30;;;10.90;99.90;;;;;;5130230;28;20169;-72
2021/09/02 03:15:16;;;;;;;0.40;0.40;;;11.10;99.90;;;;;;5130228;28;20181;-72
2021/09/02 03:17:42;;;;;;;0.10;0.10;;;11.10;99.90;;;;;;5130042;28;20166;-72
2021/09/02 03:20:08;;;;;;;0.90;0.90;;;10.80;99.90;;;;;;5129838;28;20190;-72
2021/09/02 03:22:34;;;;;;;0.10;0.10;;;10.80;99.90;;;;;;5111518;28;20178;-72
2021/09/02 03:25:00;;;;;;;1.65;1.17;;;11.00;99.90;;;;;;5129945;28;20236;-72
2021/09/02 03:27:26;;;;;;;0.40;0.40;;;10.90;99.90;;;;;;5129766;28;20238;-72
2021/09/02 03:29:52;;;;;;;0.98;0.98;;;11.00;99.90;;;;;;5129767;28;20198;-74
2021/09/02 03:32:18;;;;;;;0.60;0.60;;;10.50;99.90;;;;;;5129871;28;20155;-72
2021/09/02 03:34:44;;;;;;;0.32;0.32;;;10.40;99.90;;;;;;5111507;28;20179;-72
2021/09/02 03:37:10;;;;;;;1.25;0.85;;;10.20;99.90;;;;;;5129891;28;20163;-72
2021/09/02 03:39:36;;;;;;;0.50;0.40;;;10.00;99.90;;;;;;5129612;28;20190;-74
2021/09/02 03:42:01;;;;;;;0.70;0.70;;;10.10;99.90;;;;;;5129794;28;20166;-73
2021/09/02 03:44:27;;;;;;;0.32;0.32;;;10.30;99.90;;;;;;5129644;28;20190;-72
2021/09/02 03:46:53;;;;;;;0.43;0.43;;;10.50;99.90;;;;;;5111186;28;20158;-73
2021/09/02 03:49:19;;;;;;;0.47;0.47;;;10.60;99.90;;;;;;5129139;28;20166;-73
2021/09/02 03:51:45;;;;;;;0.17;0.17;;;10.60;99.90;;;;;;5129091;28;20218;-73
2021/09/02 03:54:11;;;;;;;0.73;0.73;;;10.50;99.90;;;;;;5129412;28;20219;-73
2021/09/02 03:56:37;;;;;;;0.28;0.28;;;10.60;99.90;;;;;;5129444;28;20237;-73
2021/09/02 03:59:02;;;;;;;0.10;0.10;;;10.50;99.90;;;;;;5109909;28;20178;-72
2021/09/02 04:01:28;;;;;;;0.50;0.35;;;10.70;99.90;;;;;;5110742;28;20254;-72
2021/09/02 04:03:54;;;;;;;0.68;0.40;;;10.70;99.90;;;;;;5110826;28;20202;-72
2021/09/02 04:06:21;;;;;;;0.10;0.10;;;10.50;99.90;;;;;;5111018;28;20163;-73
2021/09/02 04:08:47;;;;;;;1.00;0.85;;;10.20;99.90;;;;;;5129069;28;20190;-73
2021/09/02 04:11:14;;;;;;;1.70;1.40;;;10.30;99.90;;;;;;5110794;28;20228;-73
2021/09/02 04:13:40;;;;;;;2.08;0.95;;;10.40;99.90;;;;;;5129259;28;20159;-73
2021/09/02 04:16:05;;;;;;;0.20;0.20;;;10.50;99.90;;;;;;5128987;28;20234;-72
2021/09/02 04:18:32;;;;;;;2.22;1.88;;;10.30;99.90;;;;;;5129100;28;20166;-73
2021/09/02 04:20:58;;;;;;;0.10;0.10;;;10.10;99.90;;;;;;5110605;28;20223;-73
2021/09/02 04:23:24;;;;;;;0.28;0.28;;;10.20;99.90;;;;;;5110642;28;20733;-73
2021/09/02 04:25:51;;;;;;;0.10;0.10;;;10.40;99.90;;;;;;5129117;28;20158;-73
2021/09/02 04:28:17;;;;;;;0.60;0.60;;;10.50;99.90;;;;;;5128977;28;20630;-73
2021/09/02 04:30:43;;;;;;;6.13;1.85;;;10.20;99.90;;;;;;5110434;28;20186;-72
2021/09/02 04:33:08;;;;;;;1.80;1.23;;;10.10;99.90;;;;;;5129085;28;20234;-73
2021/09/02 04:35:34;;;;;;;0.10;0.10;;;10.20;99.90;;;;;;5128811;28;20159;-73
2021/09/02 04:38:00;;;;;;;0.80;0.52;;;10.30;99.90;;;;;;5110562;28;20182;-73
2021/09/02 04:40:26;;;;;;;1.05;0.95;;;10.40;99.90;;;;;;5110355;28;20223;-73
2021/09/02 04:42:52;;;;;;;1.45;0.55;;;10.60;99.90;;;;;;5128786;28;20150;-73
2021/09/02 04:45:18;;;;;;;2.85;2.33;;;10.70;99.90;;;;;;5128733;28;20155;-73
2021/09/02 04:47:44;;;;;;;8.23;1.50;;;10.80;99.90;;;;;;5128740;28;20170;-73
2021/09/02 04:50:12;;;;;;;0.55;0.55;;;11.00;99.90;;;;;;5128753;28;20183;-73
2021/09/02 04:52:39;;;;;;;1.00;0.88;;;11.00;99.90;;;;;;5100222;28;20219;-73
2021/09/02 04:55:05;;;;;;;0.57;0.57;;;11.20;99.90;;;;;;5089973;28;20179;-73
2021/09/02 04:57:31;;;;;;;1.00;0.98;;;10.90;99.90;;;;;;5090053;28;20198;-72
2021/09/02 04:59:57;;;;;;;0.47;0.47;;;10.60;99.90;;;;;;5108116;28;20191;-73
2021/09/02 05:02:23;;;;;;;0.55;0.55;;;10.80;99.90;;;;;;5108215;28;20194;-73
2021/09/02 05:04:48;;;;;;;1.08;0.98;;;11.50;99.90;;;;;;5108158;28;20184;-73
2021/09/02 05:07:14;;;;;;;2.42;1.20;;;12.30;99.90;;;;;;5108199;28;20159;-73
2021/09/02 05:09:40;;;;;;;0.20;0.20;;;13.10;99.90;;;;;;5108005;28;20195;-74
2021/09/02 05:12:06;;;;;;;0.32;0.32;;;13.30;99.90;;;;;;5111686;28;20151;-74
2021/09/02 05:14:32;;;;;;;0.63;0.63;;;13.30;99.90;;;;;;5111954;28;20166;-73
2021/09/02 05:16:58;;;;;;;1.58;1.48;;;13.60;99.90;;;;;;5093455;28;20163;-73
2021/09/02 05:19:24;;;;;;;0.85;0.85;;;13.10;99.90;;;;;;5111508;28;20497;-73
2021/09/02 05:21:50;;;;;;;2.05;0.75;;;12.70;99.90;;;;;;5111647;28;20159;-73
2021/09/02 05:24:16;;;;;;;1.30;1.27;;;13.00;99.90;;;;;;5111649;28;20183;-73
2021/09/02 05:26:42;;;;;;;0.10;0.10;;;14.10;99.90;;;;;;5111661;28;20174;-74
2021/09/02 05:29:08;;;;;;;1.80;1.27;;;14.50;99.90;;;;;;5111592;28;20176;-74
2021/09/02 05:31:34;;;;;;;1.05;0.95;;;15.40;99.90;;;;;;5111619;28;20389;-73
2021/09/02 05:34:00;;;;;;;0.30;0.30;;;16.10;99.90;;;;;;5111733;28;20164;-73
2021/09/02 05:36:26;;;;;;;2.92;0.82;;;16.40;99.90;;;;;;5093138;28;20221;-74
2021/09/02 05:38:52;;;;;;;0.80;0.55;;;16.50;99.90;;;;;;5093292;28;20167;-74
2021/09/02 05:41:18;;;;;;;1.33;1.23;;;16.80;99.90;;;;;;5111396;28;20202;-74
2021/09/02 05:43:43;;;;;;;0.75;0.75;;;16.80;99.90;;;;;;5093105;28;20202;-74
2021/09/02 05:46:09;;;;;;;2.15;1.88;;;17.40;99.90;;;;;;5093104;28;20610;-74
2021/09/02 05:48:35;;;;;;;0.45;0.45;;;17.50;99.90;;;;;;5111339;28;20586;-74
2021/09/02 05:51:01;;;;;;;1.13;1.08;;;18.10;99.90;;;;;;5111264;28;20202;-73
2021/09/02 05:53:27;;;;;;;0.88;0.75;;;18.30;99.90;;;;;;5109533;28;20230;-74
2021/09/02 05:55:53;;;;;;;6.93;2.05;;;18.40;99.90;;;;;;5113363;28;20182;-74
2021/09/02 05:58:20;;;;;;;2.08;1.52;;;18.60;99.90;;;;;;5113031;28;20620;-74
2021/09/02 06:00:47;;;;;;;2.10;1.20;;;18.20;99.90;;;;;;5131458;28;20197;-74
2021/09/02 06:03:13;;;;;;;1.55;1.23;;;18.20;99.90;;;;;;5131475;28;20186;-73
2021/09/02 06:05:39;;;;;;;1.42;1.02;;;18.40;99.90;;;;;;5131555;28;20202;-74
2021/09/02 06:08:05;;;;;;;1.48;1.38;;;18.50;99.90;;;;;;5113038;28;20166;-73
2021/09/02 06:10:33;;;;;;;2.60;0.77;;;18.70;99.90;;;;;;5103743;28;20244;-73
2021/09/02 06:13:00;;;;;;;2.78;2.42;;;19.00;99.90;;;;;;5100276;28;20187;-73
2021/09/02 06:15:26;;;;;;;4.63;2.50;;;19.20;99.90;;;;;;5085805;28;20175;-74
2021/09/02 06:17:52;;;;;;;3.22;1.38;;;19.50;99.90;;;;;;5092350;28;20239;-74
2021/09/02 06:20:18;;;;;;;1.50;1.42;;;19.50;99.90;;;;;;5110110;28;20228;-74
2021/09/02 06:22:43;;;;;;;2.15;1.25;;;19.70;99.90;;;;;;5091542;28;20163;-74
2021/09/02 06:25:10;;;;;;;0.40;0.40;;;20.10;99.90;;;;;;5110680;28;20178;-74
2021/09/02 06:27:37;;;;;;;8.73;0.85;;;19.10;99.90;;;;;;5110650;28;20273;-73
2021/09/02 06:30:05;;;;;;;2.35;1.17;;;18.70;99.90;;;;;;5091713;28;20190;-73
2021/09/02 06:32:31;;;;;;;1.50;1.38;;;17.90;99.90;;;;;;5092139;28;20262;-73
2021/09/02 06:34:56;;;;;;;0.73;0.50;;;17.50;99.90;;;;;;5110419;28;20156;-73
2021/09/02 06:37:22;;;;;;;0.60;0.40;;;18.00;99.90;;;;;;5092122;28;20262;-73
2021/09/02 06:39:49;;;;;;;0.80;0.80;;;19.10;99.90;;;;;;5084082;28;20199;-74
2021/09/02 06:42:16;;;;;;;1.65;1.48;;;20.30;99.90;;;;;;5123245;28;20198;-72
2021/09/02 06:44:42;;;;;;;3.10;1.17;;;21.00;99.90;;;;;;5130377;28;20186;-72
2021/09/02 06:47:08;;;;;;;1.63;0.93;;;21.20;99.90;;;;;;5127240;28;20257;-72
2021/09/02 06:49:33;;;;;;;2.30;1.25;;;20.40;99.90;;;;;;5129855;28;20190;-71
2021/09/02 06:51:59;;;;;;;1.52;1.42;;;19.60;99.90;;;;;;5127980;28;20181;-72
2021/09/02 06:54:25;;;;;;;0.52;0.52;;;19.60;99.90;;;;;;5091724;28;20234;-71
2021/09/02 06:56:51;;;;;;;0.90;0.90;;;20.40;99.90;;;;;;5091543;28;20217;-72
2021/09/02 06:59:19;;;;;;;8.55;2.58;;;21.20;99.90;;;;;;5091049;28;20175;-74
2021/09/02 07:01:46;;;;;;;12.95;0.68;;;20.00;99.90;;;;;;5109774;28;20162;-72
2021/09/02 07:04:12;;;;;;;2.58;1.20;;;20.90;99.90;;;;;;5091531;28;20206;-74
2021/09/02 07:06:37;;;;;;;0.40;0.40;;;21.80;99.90;;;;;;5091197;28;20170;-74
2021/09/02 07:09:03;;;;;;;0.75;0.52;;;22.40;99.90;;;;;;5109763;28;20159;-74
2021/09/02 07:11:29;;;;;;;2.38;1.25;;;22.10;99.90;;;;;;5109575;28;20188;-71
2021/09/02 07:13:56;;;;;;;1.55;1.05;;;22.90;99.90;;;;;;5109365;28;20533;-74
2021/09/02 07:16:23;;;;;;;4.38;0.98;;;23.20;99.90;;;;;;5109513;28;20178;-73
2021/09/02 07:18:49;;;;;;;2.03;0.98;;;23.10;99.90;;;;;;5091198;28;20182;-73
2021/09/02 07:21:15;;;;;;;1.88;1.48;;;22.90;99.90;;;;;;5109424;28;20162;-73
2021/09/02 07:23:41;;;;;;;1.05;1.05;;;22.50;99.90;;;;;;5090830;28;20198;-73
2021/09/02 07:26:07;;;;;;;13.73;0.98;;;22.70;99.90;;;;;;5109574;28;20189;-73
2021/09/02 07:28:34;;;;;;;0.65;0.43;;;22.50;99.90;;;;;;5090822;28;20177;-72
2021/09/02 07:31:00;;;;;;;4.75;1.08;;;23.10;99.90;;;;;;5081128;28;20244;-72
2021/09/02 07:33:25;;;;;;;2.88;1.35;;;23.10;99.90;;;;;;5086893;28;20172;-73
2021/09/02 07:35:51;;;;;;;0.88;0.80;;;23.80;99.90;;;;;;5088808;28;20201;-72
2021/09/02 07:38:17;;;;;;;0.52;0.52;;;24.30;99.90;;;;;;5088689;28;20170;-72
2021/09/02 07:40:44;;;;;;;2.60;1.45;;;24.10;99.90;;;;;;5088352;28;20202;-71
2021/09/02 07:43:09;;;;;;;4.93;1.00;;;24.70;99.90;;;;;;5087943;28;20191;-71
2021/09/02 07:45:35;;;;;;;1.33;0.65;;;25.30;99.90;;;;;;5088583;28;20222;-72
2021/09/02 07:48:02;;;;;;;1.13;0.85;;;25.40;99.90;;;;;;5070602;28;20174;-71
2021/09/02 07:50:28;;;;;;;0.65;0.35;;;25.70;99.90;;;;;;5088715;28;20167;-71
2021/09/02 07:52:54;;;;;;;0.45;0.45;;;25.90;99.90;;;;;;5088209;28;20222;-70
2021/09/02 07:55:19;;;;;;;1.37;0.83;;;26.20;99.90;;;;;;5069988;28;20446;-70
2021/09/02 07:57:48;;;;;;;2.95;1.20;;;25.70;99.90;;;;;;5088550;28;20156;-71
2021/09/02 08:00:16;;;;;;;0.70;0.60;;;25.70;99.90;;;;;;5062988;28;20222;-71
2021/09/02 08:02:42;;;;;;;1.05;0.68;;;24.70;99.90;;;;;;5049501;28;20533;-70
2021/09/02 08:05:09;;;;;;;0.40;0.40;;;25.00;99.90;;;;;;5068194;28;20180;-70
2021/09/02 08:07:47;;;;;;;0.30;0.30;;;25.20;99.90;;;;;;5068212;28;20640;-70
2021/09/02 08:10:14;;;;;;;0.40;0.32;;;25.30;99.90;;;;;;5050153;28;20192;-69
2021/09/02 08:12:40;;;;;;;0.90;0.70;;;24.40;99.90;;;;;;5048836;28;20195;-72
2021/09/02 08:15:07;;;;;;;0.28;0.28;;;22.90;99.90;;;;;;5068340;28;20219;-72
2021/09/02 08:17:33;;;;;;;0.68;0.68;;;23.90;99.90;;;;;;5068332;28;20179;-72
2021/09/02 08:19:59;;;;;;;4.35;1.60;;;24.40;99.90;;;;;;5068349;28;20164;-72
2021/09/02 08:22:25;;;;;;;1.55;0.63;;;23.80;99.90;;;;;;5049931;28;20210;-72
2021/09/02 08:24:51;;;;;;;1.52;1.23;;;24.20;99.90;;;;;;5050213;28;20660;-73
2021/09/02 08:27:17;;;;;;;0.65;0.65;;;24.40;99.90;;;;;;5068370;28;20216;-72
2021/09/02 08:29:44;;;;;;;0.68;0.50;;;24.40;99.90;;;;;;5068174;28;20224;-71
2021/09/02 08:32:12;;;;;;;0.25;0.25;;;24.60;99.90;;;;;;5049911;28;20191;-71
2021/09/02 08:34:38;;;;;;;0.75;0.45;;;25.30;99.90;;;;;;5068066;28;20149;-72
2021/09/02 08:37:05;;;;;;;0.13;0.13;;;25.40;99.90;;;;;;5067988;28;20187;-72
2021/09/02 08:39:31;;;;;;;0.63;0.63;;;25.40;99.90;;;;;;5050088;28;20203;-72
2021/09/02 08:41:57;;;;;;;0.20;0.20;;;25.80;99.90;;;;;;5049819;28;20199;-72
2021/09/02 08:44:24;;;;;;;0.20;0.20;;;25.00;99.90;;;;;;5067981;28;20210;-71
2021/09/02 08:46:50;;;;;;;0.63;0.40;;;25.20;99.90;;;;;;5071310;28;20175;-71
2021/09/02 08:49:22;;;;;;;1.08;0.98;;;25.20;99.90;;;;;;5053839;28;20164;-71
2021/09/02 08:51:48;;;;;;;0.52;0.43;;;26.40;99.90;;;;;;5072196;28;20188;-72
2021/09/02 08:54:15;;;;;;;0.45;0.45;;;26.60;99.90;;;;;;5073951;28;20186;-71
2021/09/02 08:56:40;;;;;;;1.48;0.50;;;26.30;99.90;;;;;;5092078;28;20163;-71
2021/09/02 08:59:06;;;;;;;1.02;0.90;;;26.40;99.90;;;;;;5073913;28;20198;-71
2021/09/02 09:01:33;;;;;;;0.40;0.40;;;25.40;99.90;;;;;;5092017;28;20191;-71
2021/09/02 09:04:08;;;;;;;0.32;0.30;;;26.20;99.90;;;;;;5073864;28;20199;-71
2021/09/02 09:06:34;;;;;;;0.68;0.60;;;24.10;99.90;;;;;;5091966;28;20524;-72
2021/09/02 09:09:00;;;;;;;0.43;0.30;;;25.00;99.90;;;;;;5073783;28;20178;-71
2021/09/02 09:11:30;;;;;;;0.25;0.25;;;24.00;99.90;;;;;;5095276;28;20198;-71
2021/09/02 09:14:17;;;;;;;2.03;0.68;;;23.80;99.90;;;;;;5111100;28;20162;-72
2021/09/02 09:16:49;;;;;;;0.20;0.20;;;25.30;99.90;;;;;;5107235;28;20190;-72
2021/09/02 09:19:50;;;;;;;0.30;0.30;;;24.30;99.90;;;;;;5092211;28;20194;-71
2021/09/02 09:22:18;;;;;;;12.93;1.85;;;23.80;99.90;;;;;;5088188;28;20222;-71
2021/09/02 09:24:49;;;;;;;0.32;0.32;;;24.20;99.90;;;;;;5111048;28;20202;-74
2021/09/02 09:27:35;;;;;;;1.60;0.50;;;22.70;99.90;;;;;;5108087;28;20194;-72
2021/09/02 09:30:18;;;;;;;0.70;0.70;;;23.20;99.90;;;;;;5079550;28;20190;-71
2021/09/02 09:32:47;;;;;;;1.02;0.88;;;24.10;99.90;;;;;;5102644;28;20173;-72
2021/09/02 09:35:21;;;;;;;0.70;0.70;;;23.20;99.90;;;;;;5105295;28;20609;-71
2021/09/02 09:37:49;;;;;;;4.53;1.52;;;22.50;99.90;;;;;;5110450;28;20222;-71
2021/09/02 09:40:21;;;;;;;0.13;0.13;;;22.50;99.90;;;;;;5111569;28;20190;-71
2021/09/02 09:42:56;;;;;;;0.55;0.55;;;23.20;99.90;;;;;;5093101;28;20159;-71
2021/09/02 09:45:44;;;;;;;0.73;0.70;;;24.80;99.90;;;;;;5093340;28;20618;-71
2021/09/02 09:48:22;;;;;;;0.15;0.15;;;26.00;99.90;;;;;;5093350;28;20512;-71
2021/09/02 09:51:07;;;;;;;0.90;0.85;;;26.30;99.90;;;;;;5111368;28;20188;-71
2021/09/02 09:53:33;;;;;;;0.68;0.55;;;26.10;99.90;;;;;;5111135;28;20222;-72
2021/09/02 09:55:59;;;;;;;0.50;0.50;;;26.50;99.90;;;;;;5111078;28;20162;-71
2021/09/02 09:58:27;;;;;;;8.05;0.40;;;27.60;99.90;;;;;;5110997;28;20165;-72
2021/09/02 10:00:55;;;;;;;1.15;1.05;;;25.70;99.90;;;;;;5091671;28;20194;-71
2021/09/02 10:03:21;;;;;;;0.40;0.30;;;24.70;99.90;;;;;;5092752;28;20658;-71
2021/09/02 10:05:51;;;;;;;1.02;0.90;;;25.20;99.90;;;;;;5092846;28;20187;-72
2021/09/02 10:08:19;;;;;;;1.65;0.45;;;26.00;99.70;;;;;;5092750;28;20167;-72
2021/09/02 10:10:47;;;;;;;1.90;0.80;;;25.60;99.90;;;;;;5111106;28;20194;-72
2021/09/02 10:13:15;;;;;;;0.95;0.82;;;25.60;99.90;;;;;;5110979;28;20227;-71
2021/09/02 10:15:42;;;;;;;0.52;0.52;;;25.80;99.90;;;;;;5092663;28;20266;-72
2021/09/02 10:18:08;;;;;;;0.32;0.32;;;26.20;99.90;;;;;;5092916;28;20182;-71
2021/09/02 10:20:37;;;;;;;0.45;0.45;;;25.40;99.90;;;;;;5110837;28;20203;-72
2021/09/02 10:23:05;;;;;;;1.30;0.77;;;26.90;99.50;;;;;;5110676;28;20167;-71
2021/09/02 10:25:34;;;;;;;0.93;0.93;;;27.60;98.70;;;;;;5110934;28;20174;-71
2021/09/02 10:28:04;;;;;;;0.20;0.20;;;28.50;99.90;;;;;;5110643;28;20185;-71
2021/09/02 10:30:31;;;;;;;1.05;0.45;;;27.90;98.60;;;;;;5110732;28;20179;-71
2021/09/02 10:32:59;;;;;;;0.52;0.43;;;28.20;99.70;;;;;;5110628;28;20159;-71
2021/09/02 10:35:25;;;;;;;1.38;0.60;;;29.20;96.90;;;;;;5110816;28;20151;-71
2021/09/02 10:37:53;;;;;;;1.27;0.85;;;28.90;98.30;;;;;;5110718;28;20185;-71
2021/09/02 10:40:18;;;;;;;0.43;0.43;;;29.70;96.90;;;;;;5110329;28;20602;-71
2021/09/02 10:42:49;;;;;;;2.25;0.90;;;29.40;95.80;;;;;;5092154;28;20167;-71
2021/09/02 10:45:28;;;;;;;0.30;0.30;;;28.80;97.90;;;;;;5110320;28;20179;-71
2021/09/02 10:48:04;;;;;;;1.33;0.70;;;27.70;98.10;;;;;;5110426;28;20146;-70
2021/09/02 10:50:36;;;;;;;0.63;0.63;;;28.50;96.10;;;;;;5110127;28;20190;-71
2021/09/02 10:53:15;;;;;;;2.00;0.82;;;28.30;96.30;;;;;;5080816;28;20211;-72
2021/09/02 10:55:57;;;;;;;0.35;0.30;;;27.80;97.40;;;;;;5071517;28;20163;-71
2021/09/02 10:58:41;;;;;;;0.68;0.68;;;28.10;95.70;;;;;;5089785;28;20151;-72
2021/09/02 11:01:26;;;;;;;0.50;0.32;;;29.10;96.70;;;;;;5071671;28;20168;-71
2021/09/02 11:04:03;;;;;;;0.73;0.40;;;28.30;97.50;;;;;;5089682;28;20198;-72
2021/09/02 11:06:46;;;;;;;0.20;0.20;;;28.60;96.70;;;;;;5089553;28;20151;-71
2021/09/02 11:09:12;;;;;;;1.23;1.13;;;28.10;96.60;;;;;;5088878;28;20187;-70
2021/09/02 11:11:50;;;;;;;0.40;0.40;;;25.10;98.70;;;;;;5089494;28;20654;-70
2021/09/02 11:14:16;;;;;;;0.52;0.52;;;24.10;99.90;;;;;;5089273;28;20167;-70
2021/09/02 11:16:42;;;;;;;0.45;0.45;;;23.50;99.90;;;;;;5089374;28;20171;-70
2021/09/02 11:19:08;;;;;;;1.48;1.35;;;23.30;99.90;;;;;;5070254;28;20230;-71
2021/09/02 11:21:35;;;;;;;0.35;0.35;;;23.10;99.90;;;;;;5071254;28;20175;-71
2021/09/02 11:24:06;;;;;;;0.73;0.70;;;25.80;99.90;;;;;;5089292;28;20214;-71
2021/09/02 11:26:38;;;;;;;0.73;0.73;;;28.40;97.50;;;;;;5089403;28;20158;-73
2021/09/02 11:29:06;;;;;;;0.85;0.55;;;29.10;99.60;;;;;;5089181;28;20190;-72
2021/09/02 11:31:32;;;;;;;0.20;0.20;;;28.50;96.10;;;;;;5070877;28;20170;-72
2021/09/02 11:33:59;;;;;;;0.73;0.30;;;28.90;98.70;;;;;;5071170;28;20171;-72
2021/09/02 11:36:26;;;;;;;0.70;0.70;;;29.30;95.50;;;;;;5071158;28;20176;-72
2021/09/02 11:39:09;;;;;;;0.75;0.75;;;29.10;97.40;;;;;;5088853;28;20187;-72
2021/09/02 11:41:35;;;;;;;0.77;0.77;;;26.50;98.20;;;;;;5089055;28;20639;-72
2021/09/02 11:44:02;;;;;;;0.43;0.43;;;25.40;99.80;;;;;;5070629;28;20543;-71
2021/09/02 11:46:28;;;;;;;4.45;1.35;;;25.70;99.60;;;;;;5089030;28;20152;-71
2021/09/02 11:48:56;;;;;;;0.60;0.60;;;26.70;98.80;;;;;;5089056;28;20183;-72
2021/09/02 11:51:24;;;;;;;0.32;0.32;;;26.30;99.10;;;;;;5088855;28;20160;-71
2021/09/02 11:54:08;;;;;;;0.88;0.50;;;25.50;99.90;;;;;;5070692;28;20238;-71
2021/09/02 11:56:35;;;;;;;0.57;0.57;;;24.60;99.90;;;;;;5070684;28;20240;-71
2021/09/02 11:59:03;;;;;;;0.50;0.50;;;23.90;99.90;;;;;;5088501;28;20625;-71
2021/09/02 12:01:29;;;;;;;2.22;1.17;;;23.80;99.90;;;;;;5088753;28;20156;-72
2021/09/02 12:03:55;;;;;;;1.48;1.38;;;25.40;99.90;;;;;;5088654;28;20190;-71
2021/09/02 12:06:29;;;;;;;0.73;0.73;;;26.80;99.90;;;;;;5088580;28;20155;-71
2021/09/02 12:09:00;;;;;;;0.35;0.35;;;27.50;97.80;;;;;;5070503;28;20192;-70
2021/09/02 12:11:27;;;;;;;1.35;0.80;;;26.90;99.90;;;;;;5088114;28;20190;-70
2021/09/02 12:13:55;;;;;;;0.50;0.50;;;28.50;98.00;;;;;;5087736;28;20163;-70
2021/09/02 12:16:23;;;;;;;0.63;0.63;;;27.70;99.90;;;;;;5088574;28;20176;-70
2021/09/02 12:18:59;;;;;;;1.42;1.20;;;28.20;98.20;;;;;;5088548;28;20160;-70
2021/09/02 12:21:30;;;;;;;1.60;0.98;;;27.00;99.30;;;;;;5068161;28;20226;-70
2021/09/02 12:24:06;;;;;;;0.70;0.70;;;25.20;99.90;;;;;;5084845;28;20183;-70
2021/09/02 12:26:51;;;;;;;0.73;0.68;;;24.00;99.90;;;;;;5070220;28;20159;-71
2021/09/02 12:29:19;;;;;;;0.10;0.10;;;23.60;99.90;;;;;;5070258;28;20163;-71
2021/09/02 12:31:46;;;;;;;9.88;0.82;;;24.10;99.90;;;;;;5088245;28;20179;-71
2021/09/02 12:34:24;;;;;;;0.73;0.52;;;24.30;99.90;;;;;;5088422;28;20518;-71
2021/09/02 12:37:05;;;;;;;2.17;1.27;;;24.60;99.90;;;;;;5088422;28;20163;-71
2021/09/02 12:39:36;;;;;;;1.27;0.73;;;24.60;99.90;;;;;;5087706;28;20662;-71
2021/09/02 12:42:07;;;;;;;0.28;0.28;;;24.10;99.90;;;;;;5070091;28;20182;-70
2021/09/02 12:44:34;;;;;;;0.63;0.63;;;24.10;99.90;;;;;;5086909;28;20183;-71
2021/09/02 12:47:13;;;;;;;0.40;0.40;;;24.00;99.90;;;;;;5088252;28;20155;-71
2021/09/02 12:49:50;;;;;;;0.40;0.40;;;23.60;99.90;;;;;;5062221;28;20204;-71